createdAt,value
2022-09-15T00:01:10.393Z,97.92
2022-09-15T00:03:38.352Z,99.16
2022-09-15T00:06:08.896Z,99.11
2022-09-15T00:08:37.199Z,98.81
2022-09-15T00:11:07.558Z,98.47
2022-09-15T00:13:37.258Z,98.31
2022-09-15T00:16:06.423Z,97.73
2022-09-15T00:18:35.766Z,97.63
2022-09-15T00:21:08.315Z,97.40
2022-09-15T00:23:37.620Z,98.95
2022-09-15T00:26:09.236Z,98.69
2022-09-15T00:28:37.542Z,98.37
2022-09-15T00:31:08.152Z,98.76
2022-09-15T00:33:36.796Z,98.30
2022-09-15T00:36:08.332Z,98.07
2022-09-15T00:38:37.143Z,98.15
2022-09-15T00:41:06.770Z,98.47
2022-09-15T00:43:47.850Z,99.33
2022-09-15T00:46:17.320Z,99.28
2022-09-15T00:48:48.588Z,99.41
2022-09-15T00:51:23.414Z,98.57
2022-09-15T00:53:53.448Z,98.89
2022-09-15T00:56:22.934Z,99.96
2022-09-15T00:58:56.292Z,100.00
2022-09-15T01:01:26.892Z,100.00
2022-09-15T01:03:55.799Z,100.00
2022-09-15T01:06:31.672Z,99.81
2022-09-15T01:09:08.591Z,99.89
2022-09-15T01:11:36.785Z,100.00
2022-09-15T01:14:05.707Z,100.00
2022-09-15T01:16:48.552Z,100.00
2022-09-15T01:19:56.128Z,100.00
2022-09-15T01:22:37.619Z,99.96
2022-09-15T01:25:10.318Z,99.68
2022-09-15T01:28:13.557Z,100.00
2022-09-15T01:30:48.680Z,100.00
2022-09-15T01:33:29.032Z,100.00
2022-09-15T01:36:03.811Z,100.00
2022-09-15T01:38:52.005Z,100.00
2022-09-15T01:41:26.986Z,100.00
2022-09-15T01:44:00.623Z,100.00
2022-09-15T01:46:34.187Z,100.00
2022-09-15T01:49:04.781Z,100.00
2022-09-15T01:51:34.252Z,100.00
2022-09-15T01:54:06.735Z,100.00
2022-09-15T01:56:34.763Z,100.00
2022-09-15T01:59:02.692Z,100.00
2022-09-15T02:01:40.741Z,100.00
2022-09-15T02:04:13.905Z,100.00
2022-09-15T02:06:53.337Z,100.00
2022-09-15T02:09:25.728Z,100.00
2022-09-15T02:12:02.264Z,100.00
2022-09-15T02:14:44.833Z,100.00
2022-09-15T02:17:17.328Z,100.00
2022-09-15T02:19:48.861Z,100.00
2022-09-15T02:22:23.413Z,100.00
2022-09-15T02:24:58.936Z,100.00
2022-09-15T02:27:31.676Z,100.00
2022-09-15T02:30:06.089Z,100.00
2022-09-15T02:32:38.231Z,100.00
2022-09-15T02:35:09.563Z,100.00
2022-09-15T02:37:39.046Z,100.00
2022-09-15T02:40:08.399Z,100.00
2022-09-15T02:42:37.202Z,99.92
2022-09-15T02:45:06.236Z,100.00
2022-09-15T02:47:35.536Z,100.00
2022-09-15T02:50:03.492Z,100.00
2022-09-15T02:52:31.387Z,100.00
2022-09-15T02:54:59.455Z,99.96
2022-09-15T02:57:27.351Z,99.41
2022-09-15T03:00:12.901Z,99.98
2022-09-15T03:02:44.885Z,99.94
2022-09-15T03:05:14.759Z,99.90
2022-09-15T03:07:42.998Z,99.73
2022-09-15T03:10:12.230Z,99.94
2022-09-15T03:12:41.169Z,100.00
2022-09-15T03:15:11.400Z,99.63
2022-09-15T03:17:41.589Z,100.00
2022-09-15T03:20:13.681Z,100.00
2022-09-15T03:22:42.000Z,100.00
2022-09-15T03:25:11.291Z,99.38
2022-09-15T03:27:39.732Z,99.20
2022-09-15T03:30:09.397Z,99.63
2022-09-15T03:32:37.657Z,100.00
2022-09-15T03:35:06.339Z,99.79
2022-09-15T03:37:35.900Z,99.95
2022-09-15T03:40:05.238Z,99.86
2022-09-15T03:42:33.433Z,100.00
2022-09-15T03:45:01.524Z,100.00
2022-09-15T03:47:29.444Z,100.00
2022-09-15T03:49:57.347Z,100.00
2022-09-15T03:52:26.322Z,100.00
2022-09-15T03:54:55.685Z,100.00
2022-09-15T03:57:23.608Z,100.00
2022-09-15T03:59:51.534Z,99.87
2022-09-15T04:02:19.507Z,100.00
2022-09-15T04:04:47.432Z,100.00
2022-09-15T04:07:15.376Z,99.82
2022-09-15T04:09:43.266Z,99.98
2022-09-15T04:12:12.548Z,100.00
2022-09-15T04:14:40.489Z,99.93
2022-09-15T04:17:10.628Z,99.92
2022-09-15T04:19:38.649Z,100.00
2022-09-15T04:22:07.158Z,100.00
2022-09-15T04:24:35.102Z,100.00
2022-09-15T04:27:02.997Z,99.86
2022-09-15T04:29:32.410Z,99.67
2022-09-15T04:32:00.429Z,99.99
2022-09-15T04:34:28.470Z,100.00
2022-09-15T04:36:56.426Z,100.00
2022-09-15T04:39:24.369Z,100.00
2022-09-15T04:41:52.446Z,100.00
2022-09-15T04:44:20.510Z,99.85
2022-09-15T04:46:49.993Z,99.94
2022-09-15T04:49:18.084Z,99.22
2022-09-15T04:51:46.068Z,100.00
2022-09-15T04:54:14.220Z,100.00
2022-09-15T04:56:42.206Z,100.00
2022-09-15T04:59:15.705Z,100.00
2022-09-15T05:01:44.903Z,100.00
2022-09-15T05:04:14.507Z,100.00
2022-09-15T05:06:42.541Z,100.00
2022-09-15T05:09:14.722Z,100.00
2022-09-15T05:11:42.775Z,100.00
2022-09-15T05:14:11.495Z,100.00
2022-09-15T05:16:40.650Z,100.00
2022-09-15T05:19:08.588Z,100.00
2022-09-15T05:21:38.583Z,100.00
2022-09-15T05:24:06.889Z,100.00
2022-09-15T05:26:34.967Z,100.00
2022-09-15T05:29:02.880Z,100.00
2022-09-15T05:31:32.453Z,100.00
2022-09-15T05:34:02.764Z,100.00
2022-09-15T05:36:31.377Z,100.00
2022-09-15T05:39:01.758Z,100.00
2022-09-15T05:41:30.441Z,100.00
2022-09-15T05:43:59.772Z,100.00
2022-09-15T05:46:29.314Z,100.00
2022-09-15T05:48:59.471Z,100.00
2022-09-15T05:51:27.876Z,100.00
2022-09-15T05:53:55.965Z,100.00
2022-09-15T05:56:25.275Z,100.00
2022-09-15T05:58:53.707Z,100.00
2022-09-15T06:01:23.951Z,100.00
2022-09-15T06:03:52.342Z,100.00
2022-09-15T06:06:21.967Z,100.00
2022-09-15T06:08:57.971Z,100.00
2022-09-15T06:11:30.384Z,99.66
2022-09-15T06:14:00.533Z,99.62
2022-09-15T06:16:29.199Z,100.00
2022-09-15T06:18:57.201Z,100.00
2022-09-15T06:21:26.806Z,100.00
2022-09-15T06:23:55.930Z,99.97
2022-09-15T06:26:24.724Z,100.00
2022-09-15T06:28:56.451Z,100.00
2022-09-15T06:31:26.010Z,100.00
2022-09-15T06:33:55.958Z,100.00
2022-09-15T06:36:27.253Z,100.00
2022-09-15T06:38:56.272Z,99.92
2022-09-15T06:41:24.440Z,100.00
2022-09-15T06:43:53.872Z,100.00
2022-09-15T06:46:23.496Z,100.00
2022-09-15T06:48:52.392Z,100.00
2022-09-15T06:51:22.633Z,100.00
2022-09-15T06:53:51.023Z,100.00
2022-09-15T06:56:21.260Z,100.00
2022-09-15T06:58:50.026Z,100.00
2022-09-15T07:01:25.255Z,100.00
2022-09-15T07:03:53.856Z,100.00
2022-09-15T07:06:22.731Z,99.96
2022-09-15T07:08:51.710Z,99.06
2022-09-15T07:11:19.729Z,99.23
2022-09-15T07:13:49.162Z,98.58
2022-09-15T07:16:19.107Z,97.35
2022-09-15T07:18:49.735Z,96.68
2022-09-15T07:21:19.964Z,96.40
2022-09-15T07:23:48.729Z,97.24
2022-09-15T07:26:18.853Z,97.34
2022-09-15T07:28:49.910Z,96.60
2022-09-15T07:31:19.894Z,96.52
2022-09-15T07:33:49.682Z,95.59
2022-09-15T07:36:18.374Z,95.08
2022-09-15T07:38:48.606Z,95.42
2022-09-15T07:41:18.752Z,95.68
2022-09-15T07:43:48.001Z,94.81
2022-09-15T07:46:16.932Z,96.38
2022-09-15T07:48:46.465Z,95.54
2022-09-15T07:51:16.620Z,95.52
2022-09-15T07:53:45.849Z,95.36
2022-09-15T07:56:14.115Z,95.88
2022-09-15T07:58:42.019Z,94.75
2022-09-15T08:01:12.111Z,95.10
2022-09-15T08:03:41.477Z,94.52
2022-09-15T08:06:10.861Z,94.23
2022-09-15T08:08:41.087Z,93.96
2022-09-15T08:11:10.971Z,93.01
2022-09-15T08:13:41.522Z,92.17
2022-09-15T08:16:11.798Z,91.88
2022-09-15T08:18:42.052Z,92.81
2022-09-15T08:21:12.985Z,92.73
2022-09-15T08:23:42.658Z,92.17
2022-09-15T08:26:14.290Z,92.91
2022-09-15T08:28:43.058Z,92.69
2022-09-15T08:31:14.139Z,93.64
2022-09-15T08:33:45.734Z,92.86
2022-09-15T08:36:14.292Z,92.28
2022-09-15T08:38:45.247Z,91.57
2022-09-15T08:41:16.387Z,90.63
2022-09-15T08:43:49.044Z,92.33
2022-09-15T08:46:21.270Z,92.31
2022-09-15T08:48:59.605Z,92.74
2022-09-15T08:51:37.444Z,91.87
2022-09-15T08:54:15.851Z,93.80
2022-09-15T08:56:44.769Z,92.69
2022-09-15T08:59:16.706Z,92.92
2022-09-15T09:01:58.870Z,93.24
2022-09-15T09:04:48.378Z,93.50
2022-09-15T09:07:32.235Z,91.86
2022-09-15T09:10:11.178Z,91.37
2022-09-15T09:12:53.606Z,91.65
2022-09-15T09:15:32.654Z,90.80
2022-09-15T09:18:24.773Z,90.96
2022-09-15T09:21:04.202Z,91.87
2022-09-15T09:23:36.855Z,92.62
2022-09-15T09:26:10.373Z,92.17
2022-09-15T09:28:43.172Z,91.18
2022-09-15T09:31:18.871Z,90.86
2022-09-15T09:33:52.645Z,90.21
2022-09-15T09:36:21.119Z,89.60
2022-09-15T09:38:51.283Z,89.58
2022-09-15T09:41:26.814Z,87.31
2022-09-15T09:43:57.008Z,88.16
2022-09-15T09:46:24.979Z,86.98
2022-09-15T09:48:57.460Z,85.98
2022-09-15T09:51:35.612Z,86.03
2022-09-15T09:54:15.395Z,86.94
2022-09-15T09:56:45.855Z,87.16
2022-09-15T09:59:36.030Z,86.68
2022-09-15T10:02:20.738Z,89.00
2022-09-15T10:04:50.541Z,89.31
2022-09-15T10:07:21.463Z,89.51
2022-09-15T10:09:52.906Z,86.37
2022-09-15T10:12:30.837Z,84.53
2022-09-15T10:15:01.715Z,85.16
2022-09-15T10:17:41.579Z,86.80
2022-09-15T10:20:25.628Z,86.87
2022-09-15T10:23:03.334Z,87.64
2022-09-15T10:25:55.143Z,89.30
2022-09-15T10:28:25.921Z,85.98
2022-09-15T10:31:02.276Z,86.25
2022-09-15T10:33:32.404Z,87.26
2022-09-15T10:36:07.175Z,86.90
2022-09-15T10:38:45.291Z,82.29
2022-09-15T10:41:23.173Z,84.28
2022-09-15T10:44:20.361Z,85.48
2022-09-15T10:46:56.378Z,86.83
2022-09-15T10:49:38.354Z,83.81
2022-09-15T10:52:15.856Z,86.36
2022-09-15T10:55:03.172Z,86.64
2022-09-15T10:57:50.190Z,86.75
2022-09-15T11:00:22.665Z,86.95
2022-09-15T11:03:17.720Z,84.35
2022-09-15T11:05:55.984Z,83.95
2022-09-15T11:08:41.822Z,82.96
2022-09-15T11:11:18.845Z,82.56
2022-09-15T11:14:04.759Z,80.84
2022-09-15T11:16:46.244Z,82.98
2022-09-15T11:19:32.920Z,84.76
2022-09-15T11:22:05.038Z,85.21
2022-09-15T11:24:42.718Z,84.68
2022-09-15T11:27:19.340Z,85.09
2022-09-15T11:30:02.798Z,84.92
2022-09-15T11:32:38.016Z,83.99
2022-09-15T11:35:33.922Z,83.92
2022-09-15T11:38:13.122Z,83.23
2022-09-15T11:40:47.724Z,82.98
2022-09-15T11:43:22.708Z,82.04
2022-09-15T11:45:54.462Z,79.36
2022-09-15T11:48:31.113Z,79.45
2022-09-15T11:51:03.233Z,80.02
2022-09-15T11:53:38.608Z,79.75
2022-09-15T11:56:22.545Z,82.02
2022-09-15T11:59:01.321Z,79.03
2022-09-15T12:01:33.970Z,77.60
2022-09-15T12:04:09.356Z,74.94
2022-09-15T12:06:45.738Z,76.50
2022-09-15T12:09:16.962Z,76.96
2022-09-15T12:11:47.514Z,76.30
2022-09-15T12:14:18.372Z,75.74
2022-09-15T12:16:46.828Z,74.09
2022-09-15T12:19:25.473Z,73.04
2022-09-15T12:22:00.815Z,73.26
2022-09-15T12:24:38.114Z,73.57
2022-09-15T12:27:06.308Z,74.41
2022-09-15T12:29:42.199Z,71.75
2022-09-15T12:32:23.027Z,73.13
2022-09-15T12:35:01.176Z,69.16
2022-09-15T12:37:36.771Z,70.56
2022-09-15T12:40:07.903Z,70.73
2022-09-15T12:42:37.376Z,71.55
2022-09-15T12:45:08.250Z,71.61
2022-09-15T12:47:40.180Z,71.91
2022-09-15T12:50:25.486Z,70.48
2022-09-15T12:52:57.588Z,72.45
2022-09-15T12:55:28.659Z,71.48
2022-09-15T12:58:00.176Z,71.00
2022-09-15T13:00:31.501Z,72.12
2022-09-15T13:03:00.550Z,72.53
2022-09-15T13:06:18.290Z,72.00
2022-09-15T13:09:16.571Z,72.47
2022-09-15T13:11:48.207Z,72.64
2022-09-15T13:14:29.138Z,72.19
2022-09-15T13:17:03.065Z,72.52
2022-09-15T13:19:41.643Z,71.47
2022-09-15T13:22:20.590Z,72.10
2022-09-15T13:24:57.699Z,67.63
2022-09-15T13:27:34.300Z,67.80
2022-09-15T13:30:11.392Z,69.69
2022-09-15T13:32:46.640Z,70.49
2022-09-15T13:35:49.567Z,70.25
2022-09-15T13:38:43.981Z,65.22
2022-09-15T13:41:34.035Z,65.17
2022-09-15T13:44:35.815Z,67.68
2022-09-15T13:47:20.787Z,62.79
2022-09-15T13:49:54.056Z,64.93
2022-09-15T13:52:43.114Z,64.54
2022-09-15T13:55:21.727Z,62.58
2022-09-15T14:00:54.331Z,64.16
2022-09-15T14:03:25.936Z,66.53
2022-09-15T14:05:54.632Z,66.92
2022-09-15T14:08:25.237Z,66.66
2022-09-15T14:10:57.480Z,67.88
2022-09-15T14:13:28.618Z,67.94
2022-09-15T14:16:01.652Z,67.77
2022-09-15T14:18:30.927Z,65.92
2022-09-15T14:21:00.895Z,65.34
2022-09-15T14:23:29.465Z,66.63
2022-09-15T14:26:01.564Z,67.39
2022-09-15T14:28:33.262Z,68.91
2022-09-15T14:31:02.172Z,70.08
2022-09-15T14:33:38.207Z,70.66
2022-09-15T14:36:23.438Z,71.25
2022-09-15T14:39:19.113Z,73.57
2022-09-15T14:41:50.091Z,73.65
2022-09-15T14:47:28.929Z,73.85
2022-09-15T14:50:07.930Z,74.65
2022-09-15T14:52:40.567Z,75.04
2022-09-15T14:55:15.560Z,76.05
2022-09-15T14:57:51.866Z,77.64
2022-09-15T15:00:23.664Z,76.93
2022-09-15T15:03:02.684Z,77.24
2022-09-15T15:05:34.920Z,77.80
2022-09-15T15:08:07.555Z,77.40
2022-09-15T15:10:36.313Z,78.56
2022-09-15T15:13:11.274Z,78.64
2022-09-15T15:15:40.478Z,77.44
2022-09-15T15:18:31.876Z,78.29
2022-09-15T15:21:00.316Z,78.63
2022-09-15T15:23:28.998Z,79.20
2022-09-15T15:26:27.333Z,79.75
2022-09-15T15:28:56.677Z,91.46
2022-09-15T15:31:27.483Z,93.04
2022-09-15T15:33:59.441Z,93.76
2022-09-15T15:36:29.025Z,94.49
2022-09-15T15:38:59.318Z,95.25
2022-09-15T15:41:29.483Z,95.04
2022-09-15T15:44:08.183Z,93.95
2022-09-15T15:46:51.284Z,94.05
2022-09-15T15:49:21.041Z,91.53
2022-09-15T15:51:49.168Z,90.90
2022-09-15T15:54:17.091Z,92.26
2022-09-15T15:56:45.013Z,92.04
2022-09-15T15:59:16.088Z,92.92
2022-09-15T16:01:44.456Z,93.38
2022-09-15T16:04:13.256Z,93.23
2022-09-15T16:06:42.236Z,93.79
2022-09-15T16:09:11.128Z,93.64
2022-09-15T16:11:39.019Z,93.62
2022-09-15T16:14:07.030Z,93.53
2022-09-15T16:16:37.643Z,93.27
2022-09-15T16:19:05.592Z,94.20
2022-09-15T16:21:37.465Z,94.16
2022-09-15T16:24:05.945Z,93.12
2022-09-15T16:26:35.689Z,94.05
2022-09-15T16:29:03.879Z,94.78
2022-09-15T16:31:32.291Z,94.70
2022-09-15T16:34:01.649Z,95.21
2022-09-15T16:36:30.995Z,94.42
2022-09-15T16:38:58.902Z,94.47
2022-09-15T16:41:27.071Z,94.79
2022-09-15T16:43:55.853Z,94.61
2022-09-15T16:46:23.935Z,93.77
2022-09-15T16:48:52.209Z,92.60
2022-09-15T16:51:28.703Z,92.02
2022-09-15T16:53:59.363Z,92.61
2022-09-15T16:56:28.140Z,90.99
2022-09-15T16:59:00.055Z,91.25
2022-09-15T17:01:28.989Z,92.49
2022-09-15T17:03:57.280Z,92.48
2022-09-15T17:06:26.624Z,92.63
2022-09-15T17:08:55.620Z,92.71
2022-09-15T17:11:25.512Z,93.23
2022-09-15T17:13:53.573Z,93.27
2022-09-15T17:16:21.989Z,94.64
2022-09-15T17:18:50.109Z,94.64
2022-09-15T17:21:19.764Z,94.58
2022-09-15T17:23:50.732Z,95.16
2022-09-15T17:26:20.753Z,95.47
2022-09-15T17:28:48.873Z,95.85
2022-09-15T17:31:18.630Z,96.41
2022-09-15T17:33:47.478Z,95.57
2022-09-15T17:36:16.137Z,96.10
2022-09-15T17:38:44.932Z,96.62
2022-09-15T17:41:16.614Z,96.83
2022-09-15T17:43:44.837Z,97.36
2022-09-15T17:46:12.921Z,97.16
2022-09-15T17:48:40.951Z,97.87
2022-09-15T17:51:14.299Z,98.17
2022-09-15T17:53:42.370Z,98.23
2022-09-15T17:56:10.288Z,97.71
2022-09-15T17:58:39.963Z,96.67
2022-09-15T18:01:07.985Z,97.26
2022-09-15T18:03:37.994Z,97.08
2022-09-15T18:06:08.443Z,96.56
2022-09-15T18:08:37.042Z,97.47
2022-09-15T18:11:06.683Z,98.11
2022-09-15T18:13:35.196Z,98.40
2022-09-15T18:16:07.170Z,98.56
2022-09-15T18:18:35.239Z,97.12
2022-09-15T18:21:09.766Z,96.85
2022-09-15T18:23:39.152Z,97.34
2022-09-15T18:26:07.245Z,96.66
2022-09-15T18:28:35.147Z,96.89
2022-09-15T18:31:03.165Z,97.06
2022-09-15T18:33:32.547Z,97.15
2022-09-15T18:36:01.407Z,97.23
2022-09-15T18:38:29.444Z,97.34
2022-09-15T18:40:58.259Z,97.54
2022-09-15T18:43:28.247Z,97.97
2022-09-15T18:45:59.758Z,98.14
2022-09-15T18:48:28.718Z,98.66
2022-09-15T18:50:59.185Z,97.71
2022-09-15T18:53:27.258Z,97.94
2022-09-15T18:55:55.231Z,98.75
2022-09-15T18:58:23.778Z,98.89
2022-09-15T19:00:51.970Z,98.79
2022-09-15T19:03:19.914Z,98.74
2022-09-15T19:05:47.791Z,99.10
2022-09-15T19:08:17.288Z,98.78
2022-09-15T19:10:45.206Z,98.89
2022-09-15T19:13:14.293Z,99.00
2022-09-15T19:15:44.038Z,98.81
2022-09-15T19:18:12.206Z,98.67
2022-09-15T19:20:40.260Z,98.75
2022-09-15T19:23:08.240Z,99.05
2022-09-15T19:25:38.145Z,99.66
2022-09-15T19:28:06.072Z,100.00
2022-09-15T19:30:34.260Z,99.85
2022-09-15T19:33:02.866Z,100.00
2022-09-15T19:35:30.967Z,99.88
2022-09-15T19:37:59.021Z,99.93
2022-09-15T19:40:27.091Z,100.00
2022-09-15T19:42:56.540Z,100.00
2022-09-15T19:45:24.592Z,100.00
2022-09-15T19:47:52.510Z,100.00
2022-09-15T19:50:20.479Z,100.00
2022-09-15T19:52:48.460Z,100.00
2022-09-15T19:55:18.125Z,99.74
2022-09-15T19:57:46.513Z,99.29
2022-09-15T20:00:16.316Z,100.00
2022-09-15T20:02:48.620Z,100.00
2022-09-15T20:05:34.575Z,100.00
2022-09-15T20:08:03.710Z,100.00
2022-09-15T20:10:31.624Z,100.00
2022-09-15T20:12:59.461Z,100.00
2022-09-15T20:15:29.730Z,100.00
2022-09-15T20:17:57.642Z,100.00
2022-09-15T20:20:25.523Z,100.00
2022-09-15T20:22:53.445Z,100.00
2022-09-15T20:25:24.021Z,100.00
2022-09-15T20:27:52.542Z,100.00
2022-09-15T20:30:20.591Z,100.00
2022-09-15T20:32:49.926Z,100.00
2022-09-15T20:35:17.893Z,100.00
2022-09-15T20:37:45.810Z,100.00
2022-09-15T20:40:14.032Z,100.00
2022-09-15T20:42:42.610Z,100.00
2022-09-15T20:45:11.505Z,100.00
2022-09-15T20:47:39.473Z,100.00
2022-09-15T20:50:10.082Z,100.00
2022-09-15T20:52:38.636Z,100.00
2022-09-15T20:55:07.210Z,100.00
2022-09-15T20:57:35.136Z,100.00
2022-09-15T21:00:04.860Z,100.00
2022-09-15T21:02:32.874Z,100.00
2022-09-15T21:05:00.949Z,100.00
2022-09-15T21:07:30.293Z,100.00
2022-09-15T21:09:58.223Z,100.00
2022-09-15T21:12:26.195Z,100.00
2022-09-15T21:14:55.418Z,100.00
2022-09-15T21:17:23.567Z,100.00
2022-09-15T21:19:51.495Z,100.00
2022-09-15T21:22:19.456Z,100.00
2022-09-15T21:24:48.792Z,100.00
2022-09-15T21:27:28.991Z,100.00
2022-09-15T21:29:57.016Z,100.00
2022-09-15T21:32:25.443Z,100.00
2022-09-15T21:34:56.011Z,100.00
2022-09-15T21:37:24.106Z,100.00
2022-09-15T21:39:53.429Z,100.00
2022-09-15T21:42:22.506Z,100.00
2022-09-15T21:44:51.019Z,100.00
2022-09-15T21:47:19.433Z,100.00
2022-09-15T21:49:47.349Z,100.00
2022-09-15T21:52:15.408Z,100.00
2022-09-15T21:54:43.443Z,100.00
2022-09-15T21:57:14.328Z,100.00
2022-09-15T21:59:42.290Z,100.00
2022-09-15T22:02:11.605Z,100.00
2022-09-15T22:04:40.073Z,100.00
2022-09-15T22:07:07.982Z,100.00
2022-09-15T22:09:54.228Z,100.00
2022-09-15T22:12:23.444Z,100.00
2022-09-15T22:14:51.350Z,100.00
2022-09-15T22:17:19.175Z,100.00
2022-09-15T22:19:47.041Z,100.00
2022-09-15T22:22:14.951Z,100.00
2022-09-15T22:24:42.821Z,100.00
2022-09-15T22:27:10.839Z,100.00
2022-09-15T22:29:40.018Z,100.00
2022-09-15T22:32:07.872Z,100.00
2022-09-15T22:34:35.734Z,100.00
2022-09-15T22:37:03.604Z,100.00
2022-09-15T22:39:50.539Z,100.00
2022-09-15T22:42:19.222Z,100.00
2022-09-15T22:44:48.446Z,100.00
2022-09-15T22:47:16.797Z,100.00
2022-09-15T22:49:44.604Z,100.00
2022-09-15T22:52:13.335Z,100.00
2022-09-15T22:54:41.266Z,100.00
2022-09-15T22:57:09.184Z,100.00
2022-09-15T22:59:37.014Z,100.00
2022-09-15T23:02:06.373Z,100.00
2022-09-15T23:04:34.287Z,100.00
2022-09-15T23:07:02.157Z,100.00
2022-09-15T23:09:30.109Z,100.00
2022-09-15T23:11:57.982Z,100.00
2022-09-15T23:14:25.930Z,100.00
2022-09-15T23:16:53.993Z,100.00
2022-09-15T23:19:23.198Z,100.00
2022-09-15T23:21:51.511Z,100.00
2022-09-15T23:24:19.397Z,100.00
2022-09-15T23:26:47.316Z,100.00
2022-09-15T23:29:15.176Z,100.00
2022-09-15T23:31:43.165Z,100.00
2022-09-15T23:34:11.084Z,100.00
2022-09-15T23:36:40.360Z,100.00
2022-09-15T23:39:08.269Z,100.00
2022-09-15T23:41:36.787Z,100.00
2022-09-15T23:44:05.021Z,100.00
2022-09-15T23:46:33.433Z,100.00
2022-09-15T23:49:01.518Z,100.00
2022-09-15T23:51:29.378Z,100.00
2022-09-15T23:53:58.707Z,100.00
2022-09-15T23:56:26.541Z,100.00
2022-09-15T23:58:54.497Z,100.00
